sensor_id;sensor_type;location;lat;lon;timestamp;pressure;altitude;pressure_sealevel;temperature;humidity
13124;BME280;6627;50.920;12.050;2023-05-21T00:02:20;99193.69;;;25.94;42.67
13124;BME280;6627;50.920;12.050;2023-05-21T00:04:49;99128.81;;;25.18;44.04
13124;BME280;6627;50.920;12.050;2023-05-21T00:07:18;99218.75;;;26.08;42.37
13124;BME280;6627;50.920;12.050;2023-05-21T00:09:46;99141.16;;;25.31;44.07
13124;BME280;6627;50.920;12.050;2023-05-21T00:12:14;99230.66;;;26.12;42.56
13124;BME280;6627;50.920;12.050;2023-05-21T00:14:42;99274.41;;;26.58;41.50
13124;BME280;6627;50.920;12.050;2023-05-21T00:17:10;99316.50;;;27.17;40.35
13124;BME280;6627;50.920;12.050;2023-05-21T00:19:39;99179.94;;;26.44;41.22
13124;BME280;6627;50.920;12.050;2023-05-21T00:22:08;99193.38;;;26.27;42.28
13124;BME280;6627;50.920;12.050;2023-05-21T00:24:36;99007.50;;;24.86;43.62
13124;BME280;6627;50.920;12.050;2023-05-21T00:27:04;99059.38;;;24.89;44.54
13124;BME280;6627;50.920;12.050;2023-05-21T00:29:32;99190.53;;;25.91;42.67
13124;BME280;6627;50.920;12.050;2023-05-21T00:32:00;99252.16;;;26.51;41.97
13124;BME280;6627;50.920;12.050;2023-05-21T00:34:28;99140.09;;;25.61;42.99
13124;BME280;6627;50.920;12.050;2023-05-21T00:36:56;99154.31;;;25.49;43.86
13124;BME280;6627;50.920;12.050;2023-05-21T00:39:25;99112.94;;;25.08;44.67
13124;BME280;6627;50.920;12.050;2023-05-21T00:41:53;99161.81;;;25.45;44.32
13124;BME280;6627;50.920;12.050;2023-05-21T00:44:23;99206.00;;;25.92;42.84
13124;BME280;6627;50.920;12.050;2023-05-21T00:46:52;99161.41;;;25.39;44.14
13124;BME280;6627;50.920;12.050;2023-05-21T00:49:21;99195.59;;;25.72;43.63
13124;BME280;6627;50.920;12.050;2023-05-21T00:51:52;99171.00;;;25.63;43.32
13124;BME280;6627;50.920;12.050;2023-05-21T00:54:21;99099.31;;;24.81;45.14
13124;BME280;6627;50.920;12.050;2023-05-21T00:56:52;99260.41;;;26.29;43.00
13124;BME280;6627;50.920;12.050;2023-05-21T00:59:20;99192.53;;;25.95;42.83
13124;BME280;6627;50.920;12.050;2023-05-21T01:01:51;99120.63;;;25.54;42.87
13124;BME280;6627;50.920;12.050;2023-05-21T01:04:22;99094.75;;;25.14;44.02
13124;BME280;6627;50.920;12.050;2023-05-21T01:06:51;99170.22;;;25.66;43.69
13124;BME280;6627;50.920;12.050;2023-05-21T01:09:21;99105.75;;;25.00;44.83
13124;BME280;6627;50.920;12.050;2023-05-21T01:11:52;99178.22;;;25.78;43.17
13124;BME280;6627;50.920;12.050;2023-05-21T01:14:23;99154.19;;;25.20;44.88
13124;BME280;6627;50.920;12.050;2023-05-21T01:16:52;99065.16;;;24.59;45.07
13124;BME280;6627;50.920;12.050;2023-05-21T01:19:22;99085.06;;;24.79;44.75
13124;BME280;6627;50.920;12.050;2023-05-21T01:21:56;99093.84;;;24.88;44.66
13124;BME280;6627;50.920;12.050;2023-05-21T01:24:28;99277.53;;;26.46;42.20
13124;BME280;6627;50.920;12.050;2023-05-21T01:26:57;99298.63;;;26.97;40.46
13124;BME280;6627;50.920;12.050;2023-05-21T01:29:25;98992.31;;;24.45;44.46
13124;BME280;6627;50.920;12.050;2023-05-21T01:32:03;99266.44;;;26.63;41.33
13124;BME280;6627;50.920;12.050;2023-05-21T01:34:44;99187.00;;;26.09;41.91
13124;BME280;6627;50.920;12.050;2023-05-21T01:37:21;99178.28;;;26.14;41.84
13124;BME280;6627;50.920;12.050;2023-05-21T01:39:59;99177.09;;;26.04;41.98
13124;BME280;6627;50.920;12.050;2023-05-21T01:42:30;99093.69;;;25.58;42.08
13124;BME280;6627;50.920;12.050;2023-05-21T01:45:02;99138.59;;;25.81;42.20
13124;BME280;6627;50.920;12.050;2023-05-21T01:47:35;99100.53;;;25.85;41.57
13124;BME280;6627;50.920;12.050;2023-05-21T01:50:05;99087.75;;;25.49;42.99
13124;BME280;6627;50.920;12.050;2023-05-21T01:52:32;99117.97;;;25.93;41.70
13124;BME280;6627;50.920;12.050;2023-05-21T01:55:02;99003.50;;;24.66;44.04
13124;BME280;6627;50.920;12.050;2023-05-21T01:57:29;98992.31;;;24.48;44.50
13124;BME280;6627;50.920;12.050;2023-05-21T01:59:56;99181.41;;;25.87;42.49
13124;BME280;6627;50.920;12.050;2023-05-21T02:02:25;99145.72;;;25.79;42.04
13124;BME280;6627;50.920;12.050;2023-05-21T02:04:54;99153.66;;;25.98;41.76
13124;BME280;6627;50.920;12.050;2023-05-21T02:07:21;99110.41;;;25.79;41.86
13124;BME280;6627;50.920;12.050;2023-05-21T02:09:49;99036.19;;;25.26;42.18
13124;BME280;6627;50.920;12.050;2023-05-21T02:12:19;98963.41;;;24.42;43.96
13124;BME280;6627;50.920;12.050;2023-05-21T02:14:46;99022.59;;;24.92;42.95
13124;BME280;6627;50.920;12.050;2023-05-21T02:17:18;99041.63;;;25.05;42.77
13124;BME280;6627;50.920;12.050;2023-05-21T02:19:47;99100.41;;;25.39;42.56
13124;BME280;6627;50.920;12.050;2023-05-21T02:22:14;98930.31;;;23.98;44.31
13124;BME280;6627;50.920;12.050;2023-05-21T02:24:42;99054.22;;;24.84;43.43
13124;BME280;6627;50.920;12.050;2023-05-21T02:27:09;99036.47;;;25.00;42.32
13124;BME280;6627;50.920;12.050;2023-05-21T02:29:40;99049.59;;;25.10;41.77
13124;BME280;6627;50.920;12.050;2023-05-21T02:32:07;98983.69;;;24.64;42.41
13124;BME280;6627;50.920;12.050;2023-05-21T02:34:34;98868.47;;;23.65;44.20
13124;BME280;6627;50.920;12.050;2023-05-21T02:37:07;98960.81;;;24.05;43.86
13124;BME280;6627;50.920;12.050;2023-05-21T02:39:35;98965.19;;;24.09;44.34
13124;BME280;6627;50.920;12.050;2023-05-21T02:42:02;98971.53;;;24.17;43.82
13124;BME280;6627;50.920;12.050;2023-05-21T02:44:29;98964.91;;;24.32;43.44
13124;BME280;6627;50.920;12.050;2023-05-21T02:46:58;98944.50;;;23.92;44.52
13124;BME280;6627;50.920;12.050;2023-05-21T02:49:25;98945.28;;;23.89;44.65
13124;BME280;6627;50.920;12.050;2023-05-21T02:51:52;98975.81;;;24.07;44.21
13124;BME280;6627;50.920;12.050;2023-05-21T02:54:20;98967.50;;;24.00;44.29
13124;BME280;6627;50.920;12.050;2023-05-21T02:56:47;98949.13;;;23.74;44.95
13124;BME280;6627;50.920;12.050;2023-05-21T02:59:15;99085.84;;;24.76;43.30
13124;BME280;6627;50.920;12.050;2023-05-21T03:01:42;99113.00;;;25.22;42.04
13124;BME280;6627;50.920;12.050;2023-05-21T03:04:11;98973.91;;;24.15;43.71
13124;BME280;6627;50.920;12.050;2023-05-21T03:06:39;99013.53;;;24.26;44.05
13124;BME280;6627;50.920;12.050;2023-05-21T03:09:08;99114.22;;;25.28;41.98
13124;BME280;6627;50.920;12.050;2023-05-21T03:11:36;99063.06;;;25.08;41.93
13124;BME280;6627;50.920;12.050;2023-05-21T03:14:03;98909.00;;;24.02;43.10
13124;BME280;6627;50.920;12.050;2023-05-21T03:16:31;98930.13;;;23.73;44.62
13124;BME280;6627;50.920;12.050;2023-05-21T03:19:00;98893.53;;;23.38;45.18
13124;BME280;6627;50.920;12.050;2023-05-21T03:21:31;99050.84;;;24.47;43.57
13124;BME280;6627;50.920;12.050;2023-05-21T03:23:58;99041.47;;;24.69;42.74
13124;BME280;6627;50.920;12.050;2023-05-21T03:26:27;99008.91;;;24.45;42.93
13124;BME280;6627;50.920;12.050;2023-05-21T03:28:55;98963.13;;;23.96;44.26
13124;BME280;6627;50.920;12.050;2023-05-21T03:31:23;99030.31;;;24.51;43.07
13124;BME280;6627;50.920;12.050;2023-05-21T03:33:51;99007.19;;;24.29;43.63
13124;BME280;6627;50.920;12.050;2023-05-21T03:36:19;98952.72;;;23.78;44.46
13124;BME280;6627;50.920;12.050;2023-05-21T03:38:48;99011.63;;;24.37;43.64
13124;BME280;6627;50.920;12.050;2023-05-21T03:41:15;99057.25;;;24.58;43.67
13124;BME280;6627;50.920;12.050;2023-05-21T03:43:43;98916.56;;;23.57;44.94
13124;BME280;6627;50.920;12.050;2023-05-21T03:46:10;99003.88;;;24.06;44.97
13124;BME280;6627;50.920;12.050;2023-05-21T03:48:38;98976.81;;;23.78;45.08
13124;BME280;6627;50.920;12.050;2023-05-21T03:51:05;99002.97;;;23.87;45.55
13124;BME280;6627;50.920;12.050;2023-05-21T03:53:33;98952.03;;;23.48;45.65
13124;BME280;6627;50.920;12.050;2023-05-21T03:56:02;99135.75;;;24.80;43.73
13124;BME280;6627;50.920;12.050;2023-05-21T03:58:30;99089.66;;;24.54;43.92
13124;BME280;6627;50.920;12.050;2023-05-21T04:00:57;99078.53;;;24.47;43.97
13124;BME280;6627;50.920;12.050;2023-05-21T04:03:26;99047.91;;;24.25;44.49
13124;BME280;6627;50.920;12.050;2023-05-21T04:05:54;99120.63;;;24.70;44.16
13124;BME280;6627;50.920;12.050;2023-05-21T04:08:21;98950.25;;;23.25;46.30
13124;BME280;6627;50.920;12.050;2023-05-21T04:10:49;99116.53;;;24.50;44.95
13124;BME280;6627;50.920;12.050;2023-05-21T04:13:18;99114.16;;;24.52;44.69
13124;BME280;6627;50.920;12.050;2023-05-21T04:15:46;99126.97;;;24.74;43.94
13124;BME280;6627;50.920;12.050;2023-05-21T04:18:13;98977.44;;;23.60;45.35
13124;BME280;6627;50.920;12.050;2023-05-21T04:20:41;99200.53;;;25.23;43.76
13124;BME280;6627;50.920;12.050;2023-05-21T04:23:09;99274.59;;;25.88;42.68
13124;BME280;6627;50.920;12.050;2023-05-21T04:25:37;99301.28;;;26.18;41.94
13124;BME280;6627;50.920;12.050;2023-05-21T04:28:04;99189.22;;;25.57;42.63
13124;BME280;6627;50.920;12.050;2023-05-21T04:30:33;99145.56;;;25.39;42.50
13124;BME280;6627;50.920;12.050;2023-05-21T04:33:01;99157.06;;;25.41;42.74
13124;BME280;6627;50.920;12.050;2023-05-21T04:35:29;99271.13;;;26.16;41.82
13124;BME280;6627;50.920;12.050;2023-05-21T04:37:57;99278.31;;;26.35;41.50
13124;BME280;6627;50.920;12.050;2023-05-21T04:40:25;99160.78;;;25.81;41.58
13124;BME280;6627;50.920;12.050;2023-05-21T04:42:52;99151.16;;;25.54;42.80
13124;BME280;6627;50.920;12.050;2023-05-21T04:45:19;99000.00;;;24.14;44.91
13124;BME280;6627;50.920;12.050;2023-05-21T04:47:51;99084.59;;;24.70;44.30
13124;BME280;6627;50.920;12.050;2023-05-21T04:50:18;99043.56;;;24.24;45.40
13124;BME280;6627;50.920;12.050;2023-05-21T04:52:45;99188.28;;;25.24;44.00
13124;BME280;6627;50.920;12.050;2023-05-21T04:55:12;99236.81;;;25.66;43.14
13124;BME280;6627;50.920;12.050;2023-05-21T04:57:39;99199.84;;;25.40;43.81
13124;BME280;6627;50.920;12.050;2023-05-21T05:00:08;99134.22;;;24.93;44.21
13124;BME280;6627;50.920;12.050;2023-05-21T05:02:35;99236.03;;;25.69;43.51
13124;BME280;6627;50.920;12.050;2023-05-21T05:05:05;99251.59;;;25.91;43.02
13124;BME280;6627;50.920;12.050;2023-05-21T05:07:32;99221.88;;;25.96;42.20
13124;BME280;6627;50.920;12.050;2023-05-21T05:09:59;99219.44;;;25.76;43.02
13124;BME280;6627;50.920;12.050;2023-05-21T05:12:27;99215.50;;;25.88;42.49
13124;BME280;6627;50.920;12.050;2023-05-21T05:14:54;99120.81;;;25.02;44.18
13124;BME280;6627;50.920;12.050;2023-05-21T05:17:21;99179.66;;;25.44;44.35
13124;BME280;6627;50.920;12.050;2023-05-21T05:19:49;99136.00;;;25.26;43.75
13124;BME280;6627;50.920;12.050;2023-05-21T05:22:19;99174.84;;;25.33;44.00
13124;BME280;6627;50.920;12.050;2023-05-21T05:24:46;99219.47;;;25.87;43.07
13124;BME280;6627;50.920;12.050;2023-05-21T05:27:14;99261.97;;;26.09;42.89
13124;BME280;6627;50.920;12.050;2023-05-21T05:29:43;99175.25;;;25.35;43.70
13124;BME280;6627;50.920;12.050;2023-05-21T05:32:10;99124.75;;;24.98;44.40
13124;BME280;6627;50.920;12.050;2023-05-21T05:34:38;99225.22;;;25.42;44.82
13124;BME280;6627;50.920;12.050;2023-05-21T05:37:05;99306.81;;;26.25;43.07
13124;BME280;6627;50.920;12.050;2023-05-21T05:39:33;99045.69;;;24.41;44.86
13124;BME280;6627;50.920;12.050;2023-05-21T05:42:01;99062.44;;;24.11;46.64
13124;BME280;6627;50.920;12.050;2023-05-21T05:44:28;99187.84;;;25.15;45.61
13124;BME280;6627;50.920;12.050;2023-05-21T05:46:55;99174.75;;;25.12;45.15
13124;BME280;6627;50.920;12.050;2023-05-21T05:49:23;99052.13;;;24.05;46.50
13124;BME280;6627;50.920;12.050;2023-05-21T05:51:50;99221.53;;;25.21;45.42
13124;BME280;6627;50.920;12.050;2023-05-21T05:54:17;99259.41;;;25.68;44.62
13124;BME280;6627;50.920;12.050;2023-05-21T05:56:46;99317.56;;;26.37;43.54
13124;BME280;6627;50.920;12.050;2023-05-21T05:59:13;99264.63;;;25.80;43.97
13124;BME280;6627;50.920;12.050;2023-05-21T06:01:41;99405.09;;;27.01;43.05
13124;BME280;6627;50.920;12.050;2023-05-21T06:04:08;99267.16;;;26.28;42.90
13124;BME280;6627;50.920;12.050;2023-05-21T06:06:35;99449.25;;;27.52;42.77
13124;BME280;6627;50.920;12.050;2023-05-21T06:09:03;99521.81;;;28.86;39.75
13124;BME280;6627;50.920;12.050;2023-05-21T06:11:30;99397.34;;;28.48;39.55
13124;BME280;6627;50.920;12.050;2023-05-21T06:13:59;99223.38;;;27.75;39.63
13124;BME280;6627;50.920;12.050;2023-05-21T06:16:27;99254.50;;;27.41;41.02
13124;BME280;6627;50.920;12.050;2023-05-21T06:18:56;99112.84;;;26.16;42.95
13124;BME280;6627;50.920;12.050;2023-05-21T06:21:23;99378.84;;;27.84;42.08
13124;BME280;6627;50.920;12.050;2023-05-21T06:23:50;99427.59;;;28.53;40.86
13124;BME280;6627;50.920;12.050;2023-05-21T06:26:17;99275.13;;;27.55;40.97
13124;BME280;6627;50.920;12.050;2023-05-21T06:28:46;99556.50;;;30.18;37.85
13124;BME280;6627;50.920;12.050;2023-05-21T06:31:15;99585.69;;;30.55;37.50
13124;BME280;6627;50.920;12.050;2023-05-21T06:33:42;99485.41;;;30.19;37.67
13124;BME280;6627;50.920;12.050;2023-05-21T06:36:09;99674.09;;;32.63;34.18
13124;BME280;6627;50.920;12.050;2023-05-21T06:38:37;99465.31;;;32.40;33.24
13124;BME280;6627;50.920;12.050;2023-05-21T06:41:04;99386.59;;;31.21;35.65
13124;BME280;6627;50.920;12.050;2023-05-21T06:43:31;99599.66;;;33.18;33.82
13124;BME280;6627;50.920;12.050;2023-05-21T06:45:58;99689.97;;;34.91;31.04
13124;BME280;6627;50.920;12.050;2023-05-21T06:48:28;99546.06;;;34.59;31.03
13124;BME280;6627;50.920;12.050;2023-05-21T06:50:55;99460.59;;;35.21;29.73
13124;BME280;6627;50.920;12.050;2023-05-21T06:53:22;99311.59;;;34.50;30.42
13124;BME280;6627;50.920;12.050;2023-05-21T06:55:49;99163.63;;;32.88;32.01
13124;BME280;6627;50.920;12.050;2023-05-21T06:58:18;99529.53;;;35.03;31.26
13124;BME280;6627;50.920;12.050;2023-05-21T07:00:46;99025.53;;;31.21;34.56
13124;BME280;6627;50.920;12.050;2023-05-21T07:03:14;99303.44;;;33.10;32.90
13124;BME280;6627;50.920;12.050;2023-05-21T07:05:43;99379.16;;;33.92;32.13
13124;BME280;6627;50.920;12.050;2023-05-21T07:08:10;99590.53;;;36.12;30.26
13124;BME280;6627;50.920;12.050;2023-05-21T07:10:38;99216.06;;;33.66;31.64
13124;BME280;6627;50.920;12.050;2023-05-21T07:13:06;99181.72;;;32.22;34.73
13124;BME280;6627;50.920;12.050;2023-05-21T07:15:33;99343.91;;;32.60;35.19
13124;BME280;6627;50.920;12.050;2023-05-21T07:18:00;99280.19;;;32.24;34.88
13124;BME280;6627;50.920;12.050;2023-05-21T07:20:27;99315.22;;;31.76;36.78
13124;BME280;6627;50.920;12.050;2023-05-21T07:22:56;99465.75;;;32.99;35.14
13124;BME280;6627;50.920;12.050;2023-05-21T07:25:23;99459.50;;;33.44;34.53
13124;BME280;6627;50.920;12.050;2023-05-21T07:27:51;99432.59;;;32.74;35.40
13124;BME280;6627;50.920;12.050;2023-05-21T07:30:18;99492.81;;;34.07;33.31
13124;BME280;6627;50.920;12.050;2023-05-21T07:32:45;99296.75;;;32.55;35.38
13124;BME280;6627;50.920;12.050;2023-05-21T07:35:13;99443.69;;;33.50;34.26
13124;BME280;6627;50.920;12.050;2023-05-21T07:37:40;99304.53;;;32.27;36.12
13124;BME280;6627;50.920;12.050;2023-05-21T07:40:10;99502.06;;;33.58;34.55
13124;BME280;6627;50.920;12.050;2023-05-21T07:42:38;99587.34;;;35.21;32.83
13124;BME280;6627;50.920;12.050;2023-05-21T07:45:07;99276.00;;;33.47;33.15
13124;BME280;6627;50.920;12.050;2023-05-21T07:47:34;99368.13;;;34.13;32.45
13124;BME280;6627;50.920;12.050;2023-05-21T07:50:02;99393.53;;;33.94;32.87
13124;BME280;6627;50.920;12.050;2023-05-21T07:52:29;99264.78;;;33.47;33.07
13124;BME280;6627;50.920;12.050;2023-05-21T07:54:56;99274.50;;;33.42;33.13
13124;BME280;6627;50.920;12.050;2023-05-21T07:57:25;99342.25;;;33.89;33.12
13124;BME280;6627;50.920;12.050;2023-05-21T07:59:53;99590.31;;;35.94;30.72
13124;BME280;6627;50.920;12.050;2023-05-21T08:02:20;99324.16;;;34.32;31.94
13124;BME280;6627;50.920;12.050;2023-05-21T08:04:47;99444.50;;;36.16;29.82
13124;BME280;6627;50.920;12.050;2023-05-21T08:07:15;99324.97;;;35.57;29.51
13124;BME280;6627;50.920;12.050;2023-05-21T08:09:44;99329.03;;;35.56;29.87
13124;BME280;6627;50.920;12.050;2023-05-21T08:12:12;99247.28;;;34.86;30.72
13124;BME280;6627;50.920;12.050;2023-05-21T08:14:42;99353.84;;;35.35;31.22
13124;BME280;6627;50.920;12.050;2023-05-21T08:17:10;99346.19;;;35.49;30.39
13124;BME280;6627;50.920;12.050;2023-05-21T08:19:37;99452.22;;;36.03;31.37
13124;BME280;6627;50.920;12.050;2023-05-21T08:22:05;99284.31;;;35.32;29.99
13124;BME280;6627;50.920;12.050;2023-05-21T08:24:32;99386.94;;;35.92;30.27
13124;BME280;6627;50.920;12.050;2023-05-21T08:27:00;99199.72;;;34.54;30.99
13124;BME280;6627;50.920;12.050;2023-05-21T08:29:27;99189.16;;;34.07;31.61
13124;BME280;6627;50.920;12.050;2023-05-21T08:31:55;99223.47;;;34.02;32.30
13124;BME280;6627;50.920;12.050;2023-05-21T08:34:38;99444.63;;;36.34;29.85
13124;BME280;6627;50.920;12.050;2023-05-21T08:37:05;99429.94;;;36.18;30.19
13124;BME280;6627;50.920;12.050;2023-05-21T08:39:33;99528.53;;;37.00;29.29
13124;BME280;6627;50.920;12.050;2023-05-21T08:42:08;99354.25;;;35.81;30.55
13124;BME280;6627;50.920;12.050;2023-05-21T08:44:42;99401.16;;;36.01;30.47
13124;BME280;6627;50.920;12.050;2023-05-21T08:47:21;99363.69;;;36.22;29.82
13124;BME280;6627;50.920;12.050;2023-05-21T08:49:51;99305.97;;;35.70;30.48
13124;BME280;6627;50.920;12.050;2023-05-21T08:52:18;99116.00;;;34.58;30.75
13124;BME280;6627;50.920;12.050;2023-05-21T08:54:47;99242.44;;;34.74;32.50
13124;BME280;6627;50.920;12.050;2023-05-21T08:57:17;99297.16;;;35.11;31.40
13124;BME280;6627;50.920;12.050;2023-05-21T08:59:45;99255.25;;;35.01;31.65
13124;BME280;6627;50.920;12.050;2023-05-21T09:02:13;99291.38;;;35.15;31.50
13124;BME280;6627;50.920;12.050;2023-05-21T09:04:44;99332.97;;;35.46;31.53
13124;BME280;6627;50.920;12.050;2023-05-21T09:07:15;99400.25;;;36.04;30.95
13124;BME280;6627;50.920;12.050;2023-05-21T09:09:53;99320.03;;;35.35;31.65
13124;BME280;6627;50.920;12.050;2023-05-21T09:12:21;99369.22;;;36.04;30.52
13124;BME280;6627;50.920;12.050;2023-05-21T09:14:49;99461.84;;;36.71;30.39
13124;BME280;6627;50.920;12.050;2023-05-21T09:17:16;99410.19;;;36.40;31.19
13124;BME280;6627;50.920;12.050;2023-05-21T09:20:07;99341.25;;;35.97;30.74
13124;BME280;6627;50.920;12.050;2023-05-21T09:22:40;99287.72;;;35.84;30.52
13124;BME280;6627;50.920;12.050;2023-05-21T09:25:09;99412.84;;;36.65;30.33
13124;BME280;6627;50.920;12.050;2023-05-21T09:27:37;99309.75;;;36.20;31.03
13124;BME280;6627;50.920;12.050;2023-05-21T09:30:11;99492.50;;;37.53;29.91
13124;BME280;6627;50.920;12.050;2023-05-21T09:32:40;99431.34;;;37.28;29.99
13124;BME280;6627;50.920;12.050;2023-05-21T09:35:11;99440.06;;;37.61;29.94
13124;BME280;6627;50.920;12.050;2023-05-21T09:37:40;99339.38;;;36.47;31.42
13124;BME280;6627;50.920;12.050;2023-05-21T09:40:16;99375.16;;;36.50;31.19
13124;BME280;6627;50.920;12.050;2023-05-21T09:42:47;99495.00;;;37.11;31.50
13124;BME280;6627;50.920;12.050;2023-05-21T09:45:19;99273.72;;;36.24;31.02
13124;BME280;6627;50.920;12.050;2023-05-21T09:47:48;99503.06;;;37.71;31.17
13124;BME280;6627;50.920;12.050;2023-05-21T09:50:19;99455.84;;;37.90;29.65
13124;BME280;6627;50.920;12.050;2023-05-21T09:52:50;99356.25;;;37.18;29.89
13124;BME280;6627;50.920;12.050;2023-05-21T09:55:20;99384.91;;;37.48;29.74
13124;BME280;6627;50.920;12.050;2023-05-21T09:57:49;99386.06;;;37.96;29.16
13124;BME280;6627;50.920;12.050;2023-05-21T10:00:19;99320.50;;;37.15;30.66
13124;BME280;6627;50.920;12.050;2023-05-21T10:02:48;99397.00;;;38.49;27.82
13124;BME280;6627;50.920;12.050;2023-05-21T10:05:18;99212.81;;;37.22;27.96
13124;BME280;6627;50.920;12.050;2023-05-21T10:07:49;99230.19;;;38.27;25.71
13124;BME280;6627;50.920;12.050;2023-05-21T10:10:19;98915.78;;;36.87;25.45
13124;BME280;6627;50.920;12.050;2023-05-21T10:12:54;98927.91;;;36.78;25.07
13124;BME280;6627;50.920;12.050;2023-05-21T10:15:31;99127.50;;;38.03;25.06
13124;BME280;6627;50.920;12.050;2023-05-21T10:18:02;98907.97;;;36.82;24.79
13124;BME280;6627;50.920;12.050;2023-05-21T10:20:33;98944.59;;;37.09;24.04
13124;BME280;6627;50.920;12.050;2023-05-21T10:23:01;99066.13;;;38.18;24.18
13124;BME280;6627;50.920;12.050;2023-05-21T10:25:30;98901.25;;;37.55;24.12
13124;BME280;6627;50.920;12.050;2023-05-21T10:27:58;98797.75;;;36.76;24.73
13124;BME280;6627;50.920;12.050;2023-05-21T10:30:26;98919.16;;;37.52;24.20
13124;BME280;6627;50.920;12.050;2023-05-21T10:32:55;98964.06;;;38.22;23.41
13124;BME280;6627;50.920;12.050;2023-05-21T10:35:23;98874.28;;;37.45;24.38
13124;BME280;6627;50.920;12.050;2023-05-21T10:37:54;98863.22;;;37.56;23.32
13124;BME280;6627;50.920;12.050;2023-05-21T10:40:23;99049.75;;;39.29;22.65
13124;BME280;6627;50.920;12.050;2023-05-21T10:43:20;98797.94;;;37.69;22.93
13124;BME280;6627;50.920;12.050;2023-05-21T10:46:25;98755.59;;;36.97;23.95
13124;BME280;6627;50.920;12.050;2023-05-21T10:49:18;98798.28;;;37.47;23.15
13124;BME280;6627;50.920;12.050;2023-05-21T10:52:00;98858.19;;;38.14;22.67
13124;BME280;6627;50.920;12.050;2023-05-21T10:55:24;98897.66;;;38.47;22.15
13124;BME280;6627;50.920;12.050;2023-05-21T11:00:55;98861.44;;;38.51;22.29
13124;BME280;6627;50.920;12.050;2023-05-21T11:03:24;98878.03;;;38.88;21.65
13124;BME280;6627;50.920;12.050;2023-05-21T11:05:54;98824.69;;;38.86;21.21
13124;BME280;6627;50.920;12.050;2023-05-21T11:08:23;98667.56;;;38.11;21.75
13124;BME280;6627;50.920;12.050;2023-05-21T11:10:54;98665.38;;;37.85;21.92
13124;BME280;6627;50.920;12.050;2023-05-21T11:13:24;98726.22;;;38.60;20.81
13124;BME280;6627;50.920;12.050;2023-05-21T11:16:13;98749.69;;;38.81;21.58
13124;BME280;6627;50.920;12.050;2023-05-21T11:18:59;98741.75;;;38.65;22.00
13124;BME280;6627;50.920;12.050;2023-05-21T11:21:33;98738.88;;;38.80;21.63
13124;BME280;6627;50.920;12.050;2023-05-21T11:24:04;98823.41;;;39.22;21.65
13124;BME280;6627;50.920;12.050;2023-05-21T11:27:02;98557.88;;;38.00;20.35
13124;BME280;6627;50.920;12.050;2023-05-21T11:29:42;98506.84;;;37.74;19.87
13124;BME280;6627;50.920;12.050;2023-05-21T11:32:14;98453.38;;;37.76;19.77
13124;BME280;6627;50.920;12.050;2023-05-21T11:34:46;98449.63;;;38.00;19.41
13124;BME280;6627;50.920;12.050;2023-05-21T11:37:31;98459.81;;;38.32;18.73
13124;BME280;6627;50.920;12.050;2023-05-21T11:40:22;98667.72;;;39.91;19.01
13124;BME280;6627;50.920;12.050;2023-05-21T11:42:54;98309.03;;;37.59;19.18
13124;BME280;6627;50.920;12.050;2023-05-21T11:45:26;98337.78;;;37.78;19.08
13124;BME280;6627;50.920;12.050;2023-05-21T11:47:54;98497.56;;;38.76;18.43
13124;BME280;6627;50.920;12.050;2023-05-21T11:50:22;98398.81;;;38.11;18.92
13124;BME280;6627;50.920;12.050;2023-05-21T11:52:50;98522.88;;;38.59;19.64
13124;BME280;6627;50.920;12.050;2023-05-21T11:55:22;98381.72;;;37.39;20.68
13124;BME280;6627;50.920;12.050;2023-05-21T11:57:53;98774.91;;;39.61;20.69
13124;BME280;6627;50.920;12.050;2023-05-21T12:00:21;98353.38;;;37.33;20.47
13124;BME280;6627;50.920;12.050;2023-05-21T12:02:51;98472.03;;;38.03;19.48
13124;BME280;6627;50.920;12.050;2023-05-21T12:05:20;98580.50;;;39.23;18.03
13124;BME280;6627;50.920;12.050;2023-05-21T12:07:48;98540.91;;;39.08;18.86
13124;BME280;6627;50.920;12.050;2023-05-21T12:10:19;98313.25;;;37.70;18.89
13124;BME280;6627;50.920;12.050;2023-05-21T12:12:46;98599.06;;;39.24;19.02
13124;BME280;6627;50.920;12.050;2023-05-21T12:15:16;98458.81;;;38.35;19.95
13124;BME280;6627;50.920;12.050;2023-05-21T12:17:48;98541.19;;;38.23;20.84
13124;BME280;6627;50.920;12.050;2023-05-21T12:20:17;98765.03;;;39.51;20.97
13124;BME280;6627;50.920;12.050;2023-05-21T12:22:44;98480.59;;;38.09;20.70
13124;BME280;6627;50.920;12.050;2023-05-21T12:25:16;98735.88;;;39.24;20.78
13124;BME280;6627;50.920;12.050;2023-05-21T12:27:45;98619.66;;;39.50;18.39
13124;BME280;6627;50.920;12.050;2023-05-21T12:30:15;98668.03;;;39.67;19.43
13124;BME280;6627;50.920;12.050;2023-05-21T12:32:42;98651.84;;;39.73;19.50
13124;BME280;6627;50.920;12.050;2023-05-21T12:35:20;98650.28;;;39.72;19.44
13124;BME280;6627;50.920;12.050;2023-05-21T12:37:48;98728.63;;;40.59;19.06
13124;BME280;6627;50.920;12.050;2023-05-21T12:40:16;98600.84;;;39.84;19.05
13124;BME280;6627;50.920;12.050;2023-05-21T12:42:44;98683.63;;;39.83;20.16
13124;BME280;6627;50.920;12.050;2023-05-21T12:45:12;98393.88;;;38.26;19.80
13124;BME280;6627;50.920;12.050;2023-05-21T12:47:47;98437.59;;;38.25;20.56
13124;BME280;6627;50.920;12.050;2023-05-21T12:50:21;98651.63;;;39.51;20.01
13124;BME280;6627;50.920;12.050;2023-05-21T12:52:48;98626.16;;;39.30;20.21
13124;BME280;6627;50.920;12.050;2023-05-21T12:55:16;98408.19;;;37.97;20.77
13124;BME280;6627;50.920;12.050;2023-05-21T12:57:43;98285.31;;;37.36;20.36
13124;BME280;6627;50.920;12.050;2023-05-21T13:00:12;98641.19;;;39.37;19.74
13124;BME280;6627;50.920;12.050;2023-05-21T13:02:42;98604.78;;;39.09;19.88
13124;BME280;6627;50.920;12.050;2023-05-21T13:05:15;98693.38;;;40.08;19.21
13124;BME280;6627;50.920;12.050;2023-05-21T13:07:44;98484.06;;;38.85;19.58
13124;BME280;6627;50.920;12.050;2023-05-21T13:10:12;98573.72;;;39.41;19.68
13124;BME280;6627;50.920;12.050;2023-05-21T13:12:40;98445.63;;;38.53;19.59
13124;BME280;6627;50.920;12.050;2023-05-21T13:15:08;98469.88;;;38.59;20.16
13124;BME280;6627;50.920;12.050;2023-05-21T13:17:36;98325.44;;;37.55;20.65